createdAt,value
2022-10-26T00:00:12.052Z,53.54
2022-10-26T00:02:38.625Z,53.54
2022-10-26T00:05:06.359Z,53.65
2022-10-26T00:07:32.908Z,53.58
2022-10-26T00:09:59.452Z,53.60
2022-10-26T00:12:25.914Z,53.74
2022-10-26T00:14:52.420Z,53.15
2022-10-26T00:17:18.939Z,53.44
2022-10-26T00:19:46.532Z,53.40
2022-10-26T00:22:13.009Z,53.32
2022-10-26T00:24:39.527Z,53.59
2022-10-26T00:27:06.000Z,53.22
2022-10-26T00:29:32.536Z,53.07
2022-10-26T00:31:59.036Z,53.17
2022-10-26T00:34:25.580Z,53.24
2022-10-26T00:36:52.050Z,53.29
2022-10-26T00:39:18.535Z,53.42
2022-10-26T00:41:45.052Z,53.52
2022-10-26T00:44:45.574Z,53.27
2022-10-26T00:47:30.844Z,53.27
2022-10-26T00:49:57.926Z,53.24
2022-10-26T00:52:24.545Z,52.91
2022-10-26T00:54:51.598Z,53.17
2022-10-26T00:57:18.100Z,53.25
2022-10-26T00:59:44.617Z,53.33
2022-10-26T01:02:11.267Z,53.21
2022-10-26T01:04:37.816Z,53.38
2022-10-26T01:07:04.916Z,53.46
2022-10-26T01:09:32.008Z,53.42
2022-10-26T01:11:58.671Z,53.48
2022-10-26T01:14:26.052Z,53.19
2022-10-26T01:17:11.884Z,53.58
2022-10-26T01:19:51.798Z,53.43
2022-10-26T01:22:22.589Z,53.25
2022-10-26T01:24:55.055Z,53.29
2022-10-26T01:27:27.517Z,53.21
2022-10-26T01:30:12.331Z,53.20
2022-10-26T01:32:45.224Z,53.19
2022-10-26T01:35:17.258Z,53.18
2022-10-26T01:37:49.632Z,52.72
2022-10-26T01:40:42.490Z,53.17
2022-10-26T01:43:09.636Z,53.31
2022-10-26T01:45:37.485Z,53.22
2022-10-26T01:48:04.077Z,53.32
2022-10-26T01:50:30.567Z,53.44
2022-10-26T01:52:57.022Z,53.82
2022-10-26T01:55:44.928Z,53.57
2022-10-26T01:58:20.320Z,53.63
2022-10-26T02:00:54.456Z,53.62
2022-10-26T02:03:41.885Z,53.73
2022-10-26T02:06:23.044Z,53.81
2022-10-26T02:08:57.307Z,53.64
2022-10-26T02:11:40.131Z,53.73
2022-10-26T02:14:29.367Z,53.77
2022-10-26T02:16:58.404Z,53.87
2022-10-26T02:19:29.918Z,53.84
2022-10-26T02:22:19.684Z,53.85
2022-10-26T02:24:46.280Z,53.87
2022-10-26T02:27:18.652Z,53.75
2022-10-26T02:29:45.199Z,53.96
2022-10-26T02:32:11.723Z,54.24
2022-10-26T02:34:38.301Z,53.97
2022-10-26T02:37:04.831Z,53.91
2022-10-26T02:39:32.606Z,53.85
2022-10-26T02:42:01.235Z,53.95
2022-10-26T02:44:29.044Z,53.91
2022-10-26T02:46:55.581Z,53.98
2022-10-26T02:49:22.082Z,53.95
2022-10-26T02:51:56.489Z,53.75
2022-10-26T02:54:42.271Z,53.98
2022-10-26T02:57:26.537Z,54.03
2022-10-26T02:59:53.002Z,53.94
2022-10-26T03:02:19.557Z,54.08
2022-10-26T03:04:46.091Z,53.84
2022-10-26T03:07:12.626Z,54.03
2022-10-26T03:09:39.121Z,54.02
2022-10-26T03:12:05.848Z,54.03
2022-10-26T03:14:32.358Z,54.37
2022-10-26T03:16:58.840Z,54.07
2022-10-26T03:19:25.896Z,54.14
2022-10-26T03:21:52.363Z,54.55
2022-10-26T03:24:18.867Z,54.32
2022-10-26T03:26:45.330Z,54.06
2022-10-26T03:29:11.828Z,54.23
2022-10-26T03:31:38.377Z,54.17
2022-10-26T03:34:04.900Z,54.04
2022-10-26T03:36:31.430Z,54.12
2022-10-26T03:38:57.905Z,54.07
2022-10-26T03:41:24.398Z,54.07
2022-10-26T03:43:50.873Z,54.07
2022-10-26T03:46:17.357Z,54.37
2022-10-26T03:48:43.855Z,53.99
2022-10-26T03:51:10.335Z,54.16
2022-10-26T03:53:36.856Z,54.30
2022-10-26T03:56:03.327Z,54.16
2022-10-26T03:58:29.844Z,54.14
2022-10-26T04:00:56.311Z,54.25
2022-10-26T04:03:22.868Z,54.17
2022-10-26T04:05:49.418Z,54.44
2022-10-26T04:08:15.884Z,54.41
2022-10-26T04:10:42.387Z,54.04
2022-10-26T04:13:10.462Z,54.29
2022-10-26T04:15:36.941Z,54.32
2022-10-26T04:18:03.556Z,54.18
2022-10-26T04:20:30.611Z,54.21
2022-10-26T04:23:06.571Z,54.33
2022-10-26T04:25:33.683Z,54.37
2022-10-26T04:28:01.148Z,54.42
2022-10-26T04:30:27.666Z,54.51
2022-10-26T04:32:54.164Z,54.37
2022-10-26T04:35:20.644Z,54.43
2022-10-26T04:37:47.207Z,54.35
2022-10-26T04:40:13.844Z,54.13
2022-10-26T04:42:47.171Z,53.81
2022-10-26T04:45:14.871Z,53.91
2022-10-26T04:47:41.498Z,53.66
2022-10-26T04:50:08.639Z,53.61
2022-10-26T04:52:35.471Z,53.51
2022-10-26T04:55:02.081Z,53.46
2022-10-26T04:57:28.637Z,53.43
2022-10-26T04:59:55.096Z,53.47
2022-10-26T05:02:21.716Z,53.45
2022-10-26T05:04:48.403Z,53.36
2022-10-26T05:07:14.890Z,53.19
2022-10-26T05:09:41.406Z,53.02
2022-10-26T05:12:07.894Z,53.26
2022-10-26T05:14:34.391Z,53.42
2022-10-26T05:17:00.982Z,53.44
2022-10-26T05:19:27.456Z,53.50
2022-10-26T05:21:53.932Z,53.65
2022-10-26T05:24:20.435Z,53.67
2022-10-26T05:26:46.910Z,53.21
2022-10-26T05:29:13.403Z,53.60
2022-10-26T05:31:39.900Z,53.45
2022-10-26T05:34:06.440Z,53.35
2022-10-26T05:36:32.919Z,53.48
2022-10-26T05:38:59.659Z,53.35
2022-10-26T05:41:26.239Z,53.30
2022-10-26T05:43:52.738Z,53.37
2022-10-26T05:46:19.236Z,53.35
2022-10-26T05:48:45.723Z,53.31
2022-10-26T05:51:12.601Z,53.50
2022-10-26T05:53:39.117Z,53.73
2022-10-26T05:56:38.828Z,53.85
2022-10-26T05:59:10.533Z,53.84
2022-10-26T06:01:40.162Z,54.00
2022-10-26T06:04:21.754Z,54.14
2022-10-26T06:06:48.424Z,54.14
2022-10-26T06:09:15.223Z,54.20
2022-10-26T06:11:42.032Z,54.15
2022-10-26T06:14:08.938Z,54.23
2022-10-26T06:16:41.177Z,54.35
2022-10-26T06:19:36.265Z,54.37
2022-10-26T06:22:17.837Z,54.44
2022-10-26T06:25:15.687Z,54.62
2022-10-26T06:28:00.930Z,54.43
2022-10-26T06:30:27.494Z,54.51
2022-10-26T06:33:01.426Z,54.47
2022-10-26T06:36:04.789Z,54.63
2022-10-26T06:38:31.697Z,54.51
2022-10-26T06:40:58.271Z,54.51
2022-10-26T06:43:29.730Z,54.79
2022-10-26T06:46:18.781Z,54.58
2022-10-26T06:49:21.028Z,54.59
2022-10-26T06:51:54.847Z,54.45
2022-10-26T06:54:41.972Z,54.54
2022-10-26T06:57:10.216Z,54.47
2022-10-26T07:00:13.135Z,54.32
2022-10-26T07:02:39.693Z,54.54
2022-10-26T07:05:10.132Z,54.57
2022-10-26T07:07:36.615Z,54.54
2022-10-26T07:10:03.220Z,54.56
2022-10-26T07:12:32.862Z,54.78
2022-10-26T07:15:00.699Z,54.93
2022-10-26T07:17:28.434Z,54.59
2022-10-26T07:19:55.129Z,54.93
2022-10-26T07:22:21.624Z,54.66
2022-10-26T07:24:50.815Z,54.34
2022-10-26T07:27:20.305Z,54.38
2022-10-26T07:29:46.790Z,54.54
2022-10-26T07:32:13.259Z,54.59
2022-10-26T07:34:39.813Z,54.67
2022-10-26T07:37:06.344Z,54.83
2022-10-26T07:39:32.875Z,54.87
2022-10-26T07:41:59.432Z,54.82
2022-10-26T07:44:25.939Z,54.84
2022-10-26T07:46:52.411Z,54.86
2022-10-26T07:49:19.627Z,54.93
2022-10-26T07:51:46.687Z,54.99
2022-10-26T07:54:13.169Z,54.99
2022-10-26T07:56:39.656Z,54.97
2022-10-26T07:59:06.113Z,55.00
2022-10-26T08:01:32.704Z,54.72
2022-10-26T08:03:59.247Z,55.36
2022-10-26T08:06:25.787Z,55.12
2022-10-26T08:08:52.677Z,55.04
2022-10-26T08:11:19.239Z,55.12
2022-10-26T08:13:45.805Z,55.19
2022-10-26T08:16:12.392Z,54.85
2022-10-26T08:18:38.903Z,55.24
2022-10-26T08:21:11.265Z,55.27
2022-10-26T08:23:38.405Z,55.23
2022-10-26T08:26:05.037Z,55.19
2022-10-26T08:28:31.548Z,55.38
2022-10-26T08:30:58.147Z,55.44
2022-10-26T08:33:24.796Z,55.11
2022-10-26T08:36:04.866Z,55.33
2022-10-26T08:38:33.769Z,55.23
2022-10-26T08:41:01.356Z,55.28
2022-10-26T08:43:30.159Z,55.26
2022-10-26T08:46:14.511Z,55.40
2022-10-26T08:48:44.399Z,55.40
2022-10-26T08:51:13.652Z,55.81
2022-10-26T08:54:10.292Z,55.32
2022-10-26T08:56:50.713Z,55.35
2022-10-26T08:59:17.423Z,55.28
2022-10-26T09:01:43.972Z,55.45
2022-10-26T09:04:11.917Z,55.39
2022-10-26T09:06:50.400Z,55.47
2022-10-26T09:09:22.620Z,55.37
2022-10-26T09:12:07.372Z,55.38
2022-10-26T09:14:44.506Z,55.57
2022-10-26T09:17:42.915Z,55.49
2022-10-26T09:20:35.157Z,55.52
2022-10-26T09:23:03.452Z,55.55
2022-10-26T09:25:33.621Z,55.52
2022-10-26T09:28:01.468Z,55.74
2022-10-26T09:30:28.211Z,55.53
2022-10-26T09:33:20.833Z,55.55
2022-10-26T09:35:53.204Z,55.45
2022-10-26T09:38:25.205Z,55.56
2022-10-26T09:41:13.553Z,55.55
2022-10-26T09:43:50.960Z,55.44
2022-10-26T09:46:20.834Z,55.53
2022-10-26T09:48:53.700Z,55.56
2022-10-26T09:51:20.303Z,55.62
2022-10-26T09:53:47.894Z,55.38
2022-10-26T09:56:14.499Z,55.92
2022-10-26T09:58:45.424Z,55.73
2022-10-26T10:01:27.691Z,55.85
2022-10-26T10:04:13.087Z,55.66
2022-10-26T10:06:40.250Z,55.66
2022-10-26T10:09:16.588Z,55.77
2022-10-26T10:11:57.189Z,55.74
2022-10-26T10:14:28.450Z,55.73
2022-10-26T10:16:55.948Z,55.81
2022-10-26T10:19:24.903Z,55.75
2022-10-26T10:21:52.100Z,55.87
2022-10-26T10:24:32.488Z,55.97
2022-10-26T10:27:00.104Z,55.95
2022-10-26T10:29:47.689Z,56.03
2022-10-26T10:32:24.721Z,56.10
2022-10-26T10:34:52.197Z,56.09
2022-10-26T10:37:27.648Z,55.96
2022-10-26T10:40:24.435Z,56.15
2022-10-26T10:42:51.975Z,56.09
2022-10-26T10:45:29.028Z,56.11
2022-10-26T10:48:05.692Z,56.05
2022-10-26T10:50:32.608Z,56.09
2022-10-26T10:53:19.547Z,56.19
2022-10-26T10:55:59.541Z,56.10
2022-10-26T10:59:01.086Z,56.11
2022-10-26T11:01:32.583Z,56.13
2022-10-26T11:04:37.842Z,56.10
2022-10-26T11:07:04.918Z,56.14
2022-10-26T11:09:32.875Z,56.23
2022-10-26T11:12:19.021Z,56.31
2022-10-26T11:14:48.975Z,56.32
2022-10-26T11:17:18.077Z,56.35
2022-10-26T11:20:02.594Z,56.01
2022-10-26T11:22:35.893Z,56.23
2022-10-26T11:25:07.660Z,56.23
2022-10-26T11:27:39.843Z,56.34
2022-10-26T11:30:07.149Z,56.40
2022-10-26T11:32:54.865Z,56.30
2022-10-26T11:35:26.800Z,56.25
2022-10-26T11:38:46.595Z,56.19
2022-10-26T11:41:36.569Z,56.29
2022-10-26T11:44:08.558Z,56.18
2022-10-26T11:46:38.769Z,56.51
2022-10-26T11:49:14.362Z,56.31
2022-10-26T11:51:46.630Z,56.35
2022-10-26T11:56:53.083Z,56.34
2022-10-26T11:59:21.127Z,56.38
2022-10-26T12:01:50.349Z,56.47
2022-10-26T12:04:18.032Z,56.51
2022-10-26T12:06:44.522Z,56.41
2022-10-26T12:09:40.282Z,56.42
2022-10-26T12:12:38.849Z,56.25
2022-10-26T12:15:17.310Z,56.46
2022-10-26T12:17:54.374Z,56.61
2022-10-26T12:20:39.720Z,56.50
2022-10-26T12:23:06.231Z,56.22
2022-10-26T12:25:32.695Z,56.42
2022-10-26T12:28:00.885Z,56.54
2022-10-26T12:30:30.484Z,56.56
2022-10-26T12:33:01.007Z,56.38
2022-10-26T12:35:31.806Z,56.45
2022-10-26T12:37:58.597Z,56.44
2022-10-26T12:40:31.204Z,56.43
2022-10-26T12:42:58.222Z,56.80
2022-10-26T12:45:24.851Z,56.91
2022-10-26T12:47:51.505Z,57.25
2022-10-26T12:50:24.335Z,57.32
2022-10-26T12:52:55.894Z,57.40
2022-10-26T12:55:34.608Z,57.54
2022-10-26T12:58:31.221Z,57.62
2022-10-26T13:01:00.667Z,57.71
2022-10-26T13:04:09.152Z,57.46
2022-10-26T13:06:47.912Z,57.84
2022-10-26T13:09:34.660Z,57.78
2022-10-26T13:12:02.110Z,57.68
2022-10-26T13:14:34.374Z,57.73
2022-10-26T13:17:01.862Z,57.76
2022-10-26T13:19:40.536Z,57.66
2022-10-26T13:22:13.964Z,57.65
2022-10-26T13:24:40.474Z,57.71
2022-10-26T13:27:08.051Z,57.81
2022-10-26T13:30:03.410Z,57.78
2022-10-26T13:32:33.480Z,57.91
2022-10-26T13:35:00.244Z,57.75
2022-10-26T13:37:27.703Z,57.83
2022-10-26T13:39:55.946Z,57.77
2022-10-26T13:42:25.391Z,57.89
2022-10-26T13:45:03.734Z,57.74
2022-10-26T13:47:36.777Z,57.82
2022-10-26T13:50:14.034Z,57.98
2022-10-26T13:52:45.548Z,57.92
2022-10-26T13:55:28.758Z,58.00
2022-10-26T13:58:29.327Z,57.94
2022-10-26T14:01:14.093Z,58.17
2022-10-26T14:03:41.144Z,58.00
2022-10-26T14:06:29.341Z,58.11
2022-10-26T14:09:01.034Z,58.07
2022-10-26T14:11:35.826Z,57.87
2022-10-26T14:14:03.007Z,58.12
2022-10-26T14:16:30.362Z,58.01
2022-10-26T14:18:56.857Z,57.94
2022-10-26T14:21:23.346Z,58.27
2022-10-26T14:23:56.077Z,58.12
2022-10-26T14:26:27.722Z,58.08
2022-10-26T14:29:01.202Z,58.21
2022-10-26T14:31:32.026Z,58.14
2022-10-26T14:33:59.812Z,58.28
2022-10-26T14:36:36.598Z,58.24
2022-10-26T14:39:07.965Z,58.29
2022-10-26T14:41:37.462Z,58.24
2022-10-26T14:44:04.065Z,58.24
2022-10-26T14:46:34.516Z,58.33
2022-10-26T14:49:01.546Z,58.34
2022-10-26T14:51:35.035Z,58.21
2022-10-26T14:54:01.675Z,58.26
2022-10-26T14:56:46.097Z,58.23
2022-10-26T14:59:19.121Z,58.29
2022-10-26T15:01:58.175Z,58.30
2022-10-26T15:04:30.655Z,58.24
2022-10-26T15:07:12.450Z,58.48
2022-10-26T15:09:43.637Z,58.40
2022-10-26T15:12:30.140Z,58.37
2022-10-26T15:14:57.034Z,58.35
2022-10-26T15:17:27.672Z,58.38
2022-10-26T15:19:54.236Z,58.22
2022-10-26T15:22:24.080Z,58.38
2022-10-26T15:24:52.691Z,58.25
2022-10-26T15:27:19.183Z,58.37
2022-10-26T15:29:46.695Z,58.33
2022-10-26T15:32:18.951Z,58.33
2022-10-26T15:35:11.927Z,58.23
2022-10-26T15:37:38.934Z,58.17
2022-10-26T15:40:06.094Z,58.27
2022-10-26T15:42:32.608Z,58.00
2022-10-26T15:44:59.360Z,58.18
2022-10-26T15:47:29.708Z,58.30
2022-10-26T15:49:56.216Z,58.30
2022-10-26T15:52:22.712Z,58.29
2022-10-26T15:54:49.227Z,58.27
2022-10-26T15:57:19.138Z,58.44
2022-10-26T15:59:47.919Z,58.15
2022-10-26T16:02:14.927Z,58.19
2022-10-26T16:04:41.511Z,58.23
2022-10-26T16:07:12.675Z,58.21
2022-10-26T16:09:39.466Z,58.20
2022-10-26T16:12:06.251Z,58.43
2022-10-26T16:14:33.667Z,58.42
2022-10-26T16:17:08.499Z,58.58
2022-10-26T16:19:35.038Z,58.36
2022-10-26T16:22:01.655Z,58.38
2022-10-26T16:24:28.690Z,58.35
2022-10-26T16:26:55.230Z,58.35
2022-10-26T16:29:21.707Z,58.36
2022-10-26T16:31:48.374Z,58.23
2022-10-26T16:34:14.907Z,58.34
2022-10-26T16:36:41.420Z,58.12
2022-10-26T16:39:10.330Z,58.35
2022-10-26T16:41:36.811Z,58.42
2022-10-26T16:44:03.414Z,58.50
2022-10-26T16:46:29.955Z,58.31
2022-10-26T16:48:56.499Z,58.50
2022-10-26T16:51:24.462Z,58.77
2022-10-26T16:53:52.441Z,58.69
2022-10-26T16:56:21.143Z,58.85
2022-10-26T16:58:48.033Z,58.93
2022-10-26T17:01:18.237Z,58.89
2022-10-26T17:03:48.509Z,58.88
2022-10-26T17:06:15.050Z,58.99
2022-10-26T17:08:41.738Z,58.91
2022-10-26T17:11:09.124Z,59.01
2022-10-26T17:13:36.401Z,59.02
2022-10-26T17:16:07.473Z,58.98
2022-10-26T17:18:33.955Z,58.96
2022-10-26T17:21:00.462Z,59.13
2022-10-26T17:23:26.979Z,59.40
2022-10-26T17:25:53.683Z,59.46
2022-10-26T17:28:20.643Z,59.63
2022-10-26T17:30:47.156Z,59.38
2022-10-26T17:33:13.704Z,59.38
2022-10-26T17:35:40.221Z,59.46
2022-10-26T17:38:06.734Z,59.60
2022-10-26T17:40:33.311Z,59.49
2022-10-26T17:43:00.282Z,59.35
2022-10-26T17:45:26.966Z,59.36
2022-10-26T17:47:53.706Z,59.62
2022-10-26T17:50:20.431Z,59.30
2022-10-26T17:52:46.909Z,59.45
2022-10-26T17:55:13.467Z,59.66
2022-10-26T17:57:39.998Z,59.22
2022-10-26T18:00:06.985Z,59.32
2022-10-26T18:02:37.462Z,59.33
2022-10-26T18:05:06.916Z,59.35
2022-10-26T18:07:34.487Z,59.32
2022-10-26T18:10:14.002Z,59.26
2022-10-26T18:12:47.471Z,59.22
2022-10-26T18:15:13.959Z,59.27
2022-10-26T18:17:41.731Z,59.23
2022-10-26T18:20:08.818Z,59.42
2022-10-26T18:22:35.306Z,59.30
2022-10-26T18:25:01.764Z,59.30
2022-10-26T18:27:28.279Z,59.35
2022-10-26T18:29:54.739Z,59.30
2022-10-26T18:32:21.230Z,59.32
2022-10-26T18:34:47.943Z,59.27
2022-10-26T18:37:14.427Z,59.26
2022-10-26T18:39:40.927Z,59.32
2022-10-26T18:42:07.395Z,59.46
2022-10-26T18:44:33.888Z,59.35
2022-10-26T18:47:00.355Z,59.33
2022-10-26T18:49:27.340Z,59.34
2022-10-26T18:51:53.879Z,58.91
2022-10-26T18:54:20.891Z,59.52
2022-10-26T18:56:47.373Z,59.37
2022-10-26T18:59:13.880Z,59.26
2022-10-26T19:01:42.100Z,59.32
2022-10-26T19:04:09.396Z,59.40
2022-10-26T19:06:37.634Z,59.50
2022-10-26T19:09:04.520Z,59.35
2022-10-26T19:11:31.055Z,59.41
2022-10-26T19:13:57.704Z,59.26
2022-10-26T19:19:16.082Z,59.27
2022-10-26T19:21:42.765Z,59.36
2022-10-26T19:24:17.520Z,59.41
2022-10-26T19:26:44.439Z,59.50
2022-10-26T19:29:15.461Z,59.36
2022-10-26T19:31:42.906Z,59.34
2022-10-26T19:34:09.965Z,59.31
2022-10-26T19:36:36.508Z,59.17
2022-10-26T19:39:03.123Z,59.32
2022-10-26T19:41:31.232Z,59.31
2022-10-26T19:46:29.500Z,59.31
2022-10-26T19:48:57.571Z,59.39
2022-10-26T19:51:24.312Z,59.46
2022-10-26T19:53:50.822Z,59.30
2022-10-26T19:56:17.346Z,59.42
2022-10-26T19:58:44.256Z,59.52
2022-10-26T20:01:11.653Z,59.39
2022-10-26T20:03:38.206Z,59.42
2022-10-26T20:06:12.812Z,59.37
2022-10-26T20:08:43.348Z,59.42
2022-10-26T20:11:13.159Z,59.39
2022-10-26T20:13:42.502Z,59.34
2022-10-26T20:16:09.146Z,59.45
2022-10-26T20:18:35.647Z,59.35
2022-10-26T20:21:06.040Z,59.35
2022-10-26T20:23:32.532Z,59.40
2022-10-26T20:26:00.378Z,59.33
2022-10-26T20:28:26.976Z,59.46
2022-10-26T20:30:53.452Z,59.52
2022-10-26T20:33:19.988Z,59.43
2022-10-26T20:35:46.541Z,58.98
2022-10-26T20:38:19.514Z,59.38
2022-10-26T20:40:50.209Z,59.41
2022-10-26T20:43:18.114Z,59.43
2022-10-26T20:45:45.010Z,59.52
2022-10-26T20:48:11.891Z,59.54
2022-10-26T20:50:38.420Z,59.50
2022-10-26T20:53:12.053Z,59.47
2022-10-26T20:55:50.031Z,59.53
2022-10-26T20:58:41.410Z,59.30
2022-10-26T21:01:22.067Z,59.52
2022-10-26T21:03:48.599Z,59.48
2022-10-26T21:06:15.120Z,59.56
2022-10-26T21:08:41.606Z,59.60
2022-10-26T21:11:08.174Z,59.53
2022-10-26T21:13:34.634Z,59.53
2022-10-26T21:16:05.159Z,59.52
2022-10-26T21:18:32.267Z,59.44
2022-10-26T21:21:00.007Z,59.57
2022-10-26T21:23:30.692Z,59.43
2022-10-26T21:25:57.163Z,59.53
2022-10-26T21:28:23.706Z,59.98
2022-10-26T21:30:50.186Z,59.54
2022-10-26T21:33:18.902Z,59.33
2022-10-26T21:35:54.555Z,59.61
2022-10-26T21:38:21.082Z,59.56
2022-10-26T21:40:47.570Z,59.67
2022-10-26T21:43:14.114Z,59.82
2022-10-26T21:45:40.588Z,59.59
2022-10-26T21:48:07.091Z,59.74
2022-10-26T21:50:33.631Z,59.73
2022-10-26T21:53:00.119Z,59.70
2022-10-26T21:55:26.583Z,59.66
2022-10-26T21:57:53.880Z,59.64
2022-10-26T22:00:20.440Z,59.72
2022-10-26T22:02:46.903Z,59.67
2022-10-26T22:05:13.399Z,59.68
2022-10-26T22:07:39.919Z,59.69
2022-10-26T22:10:10.760Z,59.77
2022-10-26T22:12:37.737Z,59.69
2022-10-26T22:15:04.609Z,59.71
2022-10-26T22:17:31.092Z,59.83
2022-10-26T22:19:57.611Z,59.76
2022-10-26T22:22:24.107Z,59.67
2022-10-26T22:24:50.592Z,59.72
2022-10-26T22:27:17.062Z,59.75
2022-10-26T22:29:43.546Z,59.76
2022-10-26T22:32:10.002Z,59.63
2022-10-26T22:34:36.527Z,60.36
2022-10-26T22:37:03.018Z,59.82
2022-10-26T22:39:29.564Z,59.76
2022-10-26T22:41:56.047Z,59.26
2022-10-26T22:44:22.544Z,59.81
2022-10-26T22:46:49.047Z,59.80
2022-10-26T22:49:15.593Z,59.79
2022-10-26T22:51:42.096Z,59.73
2022-10-26T22:54:08.616Z,59.60
2022-10-26T22:56:35.415Z,59.85
2022-10-26T22:59:01.972Z,60.16
2022-10-26T23:01:31.392Z,59.78
2022-10-26T23:03:58.374Z,59.83
2022-10-26T23:06:26.085Z,59.79
2022-10-26T23:08:52.568Z,59.59
2022-10-26T23:11:19.916Z,59.74
2022-10-26T23:13:46.432Z,59.76
2022-10-26T23:16:14.439Z,59.79
2022-10-26T23:18:41.092Z,59.80
2022-10-26T23:21:08.241Z,59.82
2022-10-26T23:23:35.087Z,59.74
2022-10-26T23:26:10.128Z,59.79
2022-10-26T23:28:36.688Z,59.78
2022-10-26T23:31:03.200Z,59.85
2022-10-26T23:33:29.743Z,59.75
2022-10-26T23:35:57.375Z,59.74
2022-10-26T23:38:24.469Z,59.85
2022-10-26T23:40:54.695Z,59.83
2022-10-26T23:43:21.395Z,59.85
2022-10-26T23:45:47.993Z,59.88
2022-10-26T23:48:14.953Z,59.87
2022-10-26T23:50:43.016Z,59.90
2022-10-26T23:53:10.320Z,59.90
2022-10-26T23:55:36.863Z,59.94
2022-10-26T23:58:03.327Z,59.90
